ENSD

Sandane , Anda Airport

Sandane, Norway
METAR ENSD 141150Z 14008KT 9999 FEW007 M03/M07 Q1031 RMK WIND 1138FT 08006KT
Observed Flight Rules
Dec-14 @ 11:50 UTC (29 minutes ago) Visual Flight Rules
Wind Visibility Clouds
140° at 8 knots 10,000+ meters
  • Few at 700' AGL
Temperatures Readings
Current -3°C / 27°F
Dewpoint -7°C / 19°F
Humidity 74%
Altimeter 30.44" Hg
Pressure 1031 hPa
Elevation 60
METAR ENSD 141150Z 14008KT 9999 FEW007 M03/M07 Q1031 RMK WIND 1138FT 08006KT
Observed Flight Rules
Dec-14 @ 11:50 UTC
(29 minutes ago)
VFR
Wind Visibility
140° at 8 knots 10,000+ meters
Clouds
  • Few at 700' AGL
Temperature Dewpoint
-3°C / 27°F -7°C / 19°F
Humidity Altimeter Pressure
74% 30.44" Hg 1031 hPa